createdAt,value
2022-12-23T00:01:29.066Z,18.40
2022-12-23T00:03:58.757Z,16.77
2022-12-23T00:06:25.215Z,17.15
2022-12-23T00:08:58.728Z,15.02
2022-12-23T00:11:26.050Z,16.67
2022-12-23T00:14:14.780Z,18.02
2022-12-23T00:16:46.513Z,17.88
2022-12-23T00:19:12.661Z,16.42
2022-12-23T00:21:38.793Z,16.05
2022-12-23T00:24:05.163Z,15.95
2022-12-23T00:26:31.290Z,15.82
2022-12-23T00:28:58.774Z,16.27
2022-12-23T00:31:25.506Z,16.48
2022-12-23T00:33:53.504Z,16.95
2022-12-23T00:36:25.670Z,16.15
2022-12-23T00:39:10.758Z,16.70
2022-12-23T00:41:55.766Z,15.73
2022-12-23T00:44:21.889Z,16.80
2022-12-23T00:46:48.365Z,15.88
2022-12-23T00:49:34.695Z,16.13
2022-12-23T00:52:01.782Z,15.80
2022-12-23T00:54:28.483Z,14.02
2022-12-23T00:56:54.605Z,14.80
2022-12-23T00:59:20.733Z,15.77
2022-12-23T01:02:05.677Z,15.35
2022-12-23T01:04:50.386Z,16.55
2022-12-23T01:07:16.532Z,15.52
2022-12-23T01:09:42.665Z,15.27
2022-12-23T01:12:09.121Z,15.80
2022-12-23T01:14:35.773Z,16.77
2022-12-23T01:17:02.186Z,16.85
2022-12-23T01:19:29.050Z,17.23
2022-12-23T01:21:55.323Z,15.77
2022-12-23T01:24:21.580Z,14.60
2022-12-23T01:26:47.693Z,15.88
2022-12-23T01:29:13.842Z,15.30
2022-12-23T01:31:40.035Z,14.63
2022-12-23T01:34:06.163Z,15.07
2022-12-23T01:36:32.321Z,16.48
2022-12-23T01:38:58.454Z,16.17
2022-12-23T01:41:46.217Z,14.68
2022-12-23T01:44:46.258Z,14.90
2022-12-23T01:47:18.809Z,13.73
2022-12-23T01:49:46.894Z,15.45
2022-12-23T01:52:14.283Z,16.55
2022-12-23T01:54:41.687Z,14.82
2022-12-23T01:57:07.823Z,14.88
2022-12-23T01:59:52.498Z,13.43
2022-12-23T02:02:37.493Z,14.25
2022-12-23T02:05:03.796Z,14.45
2022-12-23T02:07:49.465Z,14.90
2022-12-23T02:10:15.629Z,14.23
2022-12-23T02:12:52.412Z,13.48
2022-12-23T02:15:55.447Z,13.57
2022-12-23T02:18:38.075Z,14.07
2022-12-23T02:21:23.535Z,12.30
2022-12-23T02:24:22.412Z,13.57
2022-12-23T02:26:54.266Z,13.27
2022-12-23T02:30:03.075Z,13.50
2022-12-23T02:32:47.539Z,12.30
2022-12-23T02:35:23.715Z,11.73
2022-12-23T02:37:59.972Z,12.02
2022-12-23T02:40:36.553Z,12.10
2022-12-23T02:43:13.158Z,12.57
2022-12-23T02:45:45.816Z,12.00
2022-12-23T02:48:24.702Z,11.43
2022-12-23T02:50:53.576Z,10.68
2022-12-23T02:53:27.759Z,11.27
2022-12-23T02:55:57.017Z,12.77
2022-12-23T02:58:27.880Z,12.60
2022-12-23T03:00:55.500Z,11.88
2022-12-23T03:03:22.462Z,12.50
2022-12-23T03:05:51.033Z,12.15
2022-12-23T03:08:24.046Z,11.68
2022-12-23T03:11:01.907Z,12.38
2022-12-23T03:13:32.997Z,12.23
2022-12-23T03:16:24.071Z,10.70
2022-12-23T03:19:27.691Z,12.70
2022-12-23T03:22:10.788Z,12.07
2022-12-23T03:25:04.463Z,12.55
2022-12-23T03:27:33.265Z,11.90
2022-12-23T03:30:06.246Z,13.32
2022-12-23T03:32:53.545Z,12.43
2022-12-23T03:35:23.900Z,11.45
2022-12-23T03:37:53.582Z,11.18
2022-12-23T03:40:24.851Z,11.65
2022-12-23T03:42:58.628Z,11.65
2022-12-23T03:45:39.275Z,12.63
2022-12-23T03:48:13.657Z,13.27
2022-12-23T03:50:42.903Z,12.75
2022-12-23T03:53:16.314Z,13.32
2022-12-23T03:55:48.428Z,11.80
2022-12-23T03:58:27.101Z,13.35
2022-12-23T04:01:02.324Z,12.38
2022-12-23T04:03:38.806Z,13.95
2022-12-23T04:06:09.939Z,12.38
2022-12-23T04:08:38.195Z,13.27
2022-12-23T04:11:05.379Z,13.30
2022-12-23T04:13:31.909Z,13.00
2022-12-23T04:15:59.445Z,12.88
2022-12-23T04:18:25.659Z,12.82
2022-12-23T04:20:51.766Z,14.98
2022-12-23T04:23:17.893Z,13.57
2022-12-23T04:25:44.002Z,13.90
2022-12-23T04:28:10.148Z,14.18
2022-12-23T04:30:36.267Z,13.25
2022-12-23T04:33:03.242Z,14.00
2022-12-23T04:35:30.604Z,13.65
2022-12-23T04:37:56.731Z,13.95
2022-12-23T04:40:22.844Z,14.38
2022-12-23T04:42:48.972Z,14.13
2022-12-23T04:45:15.206Z,14.02
2022-12-23T04:47:41.414Z,14.20
2022-12-23T04:50:08.141Z,15.55
2022-12-23T04:52:34.276Z,14.25
2022-12-23T04:55:00.381Z,13.82
2022-12-23T04:57:26.526Z,14.85
2022-12-23T04:59:52.630Z,14.40
2022-12-23T07:57:37.791Z,11.02
2022-12-23T08:00:05.946Z,10.35
2022-12-23T08:02:38.582Z,11.45
2022-12-23T08:05:06.092Z,11.40
2022-12-23T08:07:32.264Z,10.30
2022-12-23T08:09:58.454Z,10.18
2022-12-23T08:12:25.391Z,9.52
2022-12-23T08:14:52.727Z,9.15
2022-12-23T08:17:21.516Z,10.02
2022-12-23T08:19:48.480Z,11.18
2022-12-23T08:22:14.678Z,9.77
2022-12-23T08:24:40.790Z,9.23
2022-12-23T08:27:07.032Z,10.75
2022-12-23T08:29:36.358Z,11.02
2022-12-23T08:32:03.177Z,8.98
2022-12-23T08:34:29.318Z,11.35
2022-12-23T08:36:55.443Z,11.48
2022-12-23T08:39:21.561Z,9.95
2022-12-23T08:41:48.299Z,10.73
2022-12-23T08:44:15.439Z,12.15
2022-12-23T08:46:42.177Z,11.10
2022-12-23T08:49:09.025Z,10.38
2022-12-23T08:51:36.222Z,11.80
2022-12-23T08:54:02.996Z,11.18
2022-12-23T08:56:32.381Z,11.38
2022-12-23T08:58:59.508Z,11.27
2022-12-23T09:01:29.580Z,11.68
2022-12-23T09:03:56.004Z,11.05
2022-12-23T09:06:29.576Z,11.30
2022-12-23T09:08:56.516Z,10.40
2022-12-23T09:11:25.743Z,10.75
2022-12-23T09:13:51.967Z,11.77
2022-12-23T09:16:18.656Z,10.43
2022-12-23T09:18:44.847Z,12.23
2022-12-23T09:21:15.011Z,10.52
2022-12-23T09:23:41.380Z,9.77
2022-12-23T09:26:08.912Z,10.35
2022-12-23T09:28:35.187Z,10.20
2022-12-23T09:31:12.657Z,10.20
2022-12-23T09:33:39.261Z,9.15
2022-12-23T09:36:06.500Z,9.82
2022-12-23T09:38:33.419Z,9.32
2022-12-23T09:41:30.491Z,13.57
2022-12-23T09:44:17.514Z,8.60
2022-12-23T09:46:53.064Z,8.13
2022-12-23T09:49:22.630Z,7.88
2022-12-23T09:51:50.863Z,7.70
2022-12-23T09:54:23.638Z,8.32
2022-12-23T09:57:16.330Z,7.85
2022-12-23T10:00:10.987Z,10.70
2022-12-23T10:02:45.336Z,7.90
2022-12-23T10:05:43.893Z,8.73
2022-12-23T10:08:17.558Z,6.78
2022-12-23T10:10:48.438Z,6.20
2022-12-23T10:13:26.693Z,6.32
2022-12-23T10:15:54.582Z,5.97
2022-12-23T10:18:25.797Z,6.53
2022-12-23T10:21:29.131Z,7.32
2022-12-23T10:23:55.676Z,7.55
2022-12-23T10:26:31.239Z,6.60
2022-12-23T10:29:15.440Z,6.75
2022-12-23T10:32:06.992Z,6.70
2022-12-23T10:34:45.785Z,7.30
2022-12-23T10:37:20.410Z,6.30
2022-12-23T10:40:05.392Z,7.88
2022-12-23T10:42:40.350Z,7.10
2022-12-23T10:45:24.741Z,7.07
2022-12-23T10:48:17.904Z,8.07
2022-12-23T10:51:03.498Z,7.63
2022-12-23T10:53:39.227Z,7.18
2022-12-23T10:56:07.370Z,8.35
2022-12-23T10:58:38.364Z,8.63
2022-12-23T11:01:15.032Z,8.52
2022-12-23T11:04:10.282Z,9.43
2022-12-23T11:06:46.352Z,8.80
2022-12-23T11:09:22.637Z,8.98
2022-12-23T11:12:00.899Z,9.45
2022-12-23T11:14:41.719Z,9.07
2022-12-23T11:17:24.553Z,9.15
2022-12-23T11:20:15.341Z,9.70
2022-12-23T11:22:49.345Z,10.00
2022-12-23T11:25:29.754Z,8.85
2022-12-23T11:28:07.627Z,8.45
2022-12-23T11:30:39.333Z,9.65
2022-12-23T11:33:06.233Z,9.13
2022-12-23T11:35:35.729Z,10.38
2022-12-23T11:38:03.877Z,9.52
2022-12-23T11:40:37.568Z,9.07
2022-12-23T11:43:11.559Z,9.48
2022-12-23T11:45:38.721Z,9.38
2022-12-23T11:48:06.143Z,9.15
2022-12-23T11:50:37.996Z,9.25
2022-12-23T11:53:13.224Z,10.25
2022-12-23T11:55:48.483Z,9.95
2022-12-23T11:58:21.177Z,9.30
2022-12-23T12:00:59.100Z,8.98
2022-12-23T12:03:30.538Z,10.48
2022-12-23T12:06:03.560Z,10.13
2022-12-23T12:08:37.292Z,10.15
2022-12-23T12:11:14.879Z,9.75
2022-12-23T12:13:43.570Z,9.90
2022-12-23T12:16:23.066Z,10.25
2022-12-23T12:18:55.531Z,9.48
2022-12-23T12:21:28.131Z,9.90
2022-12-23T12:24:20.556Z,10.07
2022-12-23T12:26:52.364Z,9.73
2022-12-23T12:29:42.088Z,15.95
2022-12-23T12:32:46.465Z,10.93
2022-12-23T12:35:21.722Z,10.18
2022-12-23T12:38:09.269Z,10.05
2022-12-23T12:40:51.633Z,10.40
2022-12-23T12:43:27.473Z,11.35
2022-12-23T12:46:10.219Z,9.10
2022-12-23T12:49:15.199Z,10.57
2022-12-23T12:51:57.959Z,10.65
2022-12-23T12:54:45.565Z,11.05
2022-12-23T12:57:17.863Z,10.38
2022-12-23T12:59:45.195Z,11.38
2022-12-23T13:02:52.300Z,10.15
2022-12-23T13:05:30.410Z,10.00
2022-12-23T13:08:26.400Z,11.75
2022-12-23T13:11:09.658Z,9.38
2022-12-23T13:13:47.892Z,10.20
2022-12-23T13:16:36.496Z,10.98
2022-12-23T13:19:21.406Z,10.85
2022-12-23T13:21:52.746Z,11.15
2022-12-23T13:24:50.745Z,10.68
2022-12-23T13:27:29.003Z,9.45
2022-12-23T13:30:05.828Z,8.55
2022-12-23T13:32:49.814Z,10.13
2022-12-23T13:35:24.853Z,9.73
2022-12-23T13:38:26.338Z,9.25
2022-12-23T13:41:04.622Z,9.77
2022-12-23T13:43:42.668Z,9.80
2022-12-23T13:46:26.874Z,10.63
2022-12-23T13:49:00.222Z,11.70
2022-12-23T13:51:44.609Z,11.23
2022-12-23T13:54:27.203Z,10.32
2022-12-23T13:57:22.848Z,11.35
2022-12-23T14:00:06.022Z,11.07
2022-12-23T14:02:42.240Z,10.88
2022-12-23T14:05:35.290Z,10.02
2022-12-23T14:08:22.719Z,9.80
2022-12-23T14:11:14.795Z,9.77
2022-12-23T14:13:44.229Z,10.20
2022-12-23T14:16:21.691Z,11.02
2022-12-23T14:19:06.525Z,12.50
2022-12-23T14:21:51.485Z,11.27
2022-12-23T14:24:30.801Z,10.67
2022-12-23T14:27:19.763Z,11.25
2022-12-23T14:30:16.547Z,12.30
2022-12-23T14:33:03.294Z,10.77
2022-12-23T14:35:38.329Z,10.65
2022-12-23T14:38:15.438Z,10.15
2022-12-23T14:40:41.565Z,11.30
2022-12-23T14:43:23.232Z,10.82
2022-12-23T14:45:54.503Z,11.68
2022-12-23T14:48:35.913Z,10.85
2022-12-23T14:51:09.265Z,10.55
2022-12-23T14:53:54.010Z,9.68
2022-12-23T14:56:20.095Z,10.93
2022-12-23T14:58:46.166Z,9.90
2022-12-23T15:01:33.641Z,11.18
2022-12-23T15:04:08.146Z,11.00
2022-12-23T15:06:51.148Z,11.82
2022-12-23T15:09:49.805Z,12.38
2022-12-23T15:12:22.281Z,11.23
2022-12-23T15:14:56.909Z,11.50
2022-12-23T15:17:32.367Z,10.35
2022-12-23T15:22:41.298Z,10.05
2022-12-23T15:25:29.221Z,11.35
2022-12-23T15:28:01.431Z,12.02
2022-12-23T15:30:34.055Z,11.85
2022-12-23T15:33:16.094Z,12.25
2022-12-23T15:35:52.717Z,12.05
2022-12-23T15:38:21.116Z,11.82
2022-12-23T15:41:14.605Z,12.65
2022-12-23T15:43:42.228Z,12.43
2022-12-23T15:46:28.727Z,14.50
2022-12-23T15:48:56.742Z,12.93
2022-12-23T15:54:35.092Z,13.30
2022-12-23T15:57:03.313Z,12.13
2022-12-23T15:59:34.244Z,13.38
2022-12-23T16:02:40.540Z,12.70
2022-12-23T16:05:00.501Z,13.10
2022-12-23T16:07:35.388Z,10.75
2022-12-23T16:10:20.994Z,12.13
2022-12-23T16:12:52.034Z,11.35
2022-12-23T16:15:29.915Z,12.13
2022-12-23T16:18:20.643Z,12.63
2022-12-23T16:21:02.404Z,11.68
2022-12-23T16:23:30.799Z,11.48
2022-12-23T16:25:59.904Z,12.85
2022-12-23T16:28:39.018Z,11.38
2022-12-23T16:31:07.744Z,13.65
2022-12-23T16:33:51.436Z,11.38
2022-12-23T16:36:17.507Z,11.65
2022-12-23T16:38:44.054Z,11.85
2022-12-23T16:41:10.449Z,12.85
2022-12-23T16:43:36.580Z,13.15
2022-12-23T16:46:03.332Z,13.25
2022-12-23T16:48:36.489Z,12.43
2022-12-23T16:51:08.652Z,13.10
2022-12-23T16:53:34.802Z,11.55
2022-12-23T16:56:01.520Z,11.48
2022-12-23T16:58:27.814Z,11.77
2022-12-23T17:00:54.115Z,14.98
2022-12-23T17:03:20.703Z,16.70
2022-12-23T17:05:47.744Z,15.65
2022-12-23T17:08:14.123Z,14.30
2022-12-23T17:10:42.540Z,15.30
2022-12-23T17:13:11.933Z,15.98
2022-12-23T17:15:38.146Z,16.02
2022-12-23T17:18:04.377Z,16.65
2022-12-23T17:20:30.782Z,18.13
2022-12-23T17:22:59.906Z,22.75
2022-12-23T17:25:26.714Z,19.65
2022-12-23T17:27:53.758Z,16.98
2022-12-23T17:30:23.079Z,16.55
2022-12-23T17:32:56.484Z,13.35
2022-12-23T17:35:23.371Z,12.02
2022-12-23T17:37:49.730Z,12.45
2022-12-23T17:40:16.560Z,12.38
2022-12-23T17:42:43.449Z,12.38
2022-12-23T17:45:27.830Z,14.05
2022-12-23T17:47:53.982Z,14.00
2022-12-23T17:50:20.637Z,12.10
2022-12-23T17:52:46.994Z,12.73
2022-12-23T17:55:23.039Z,12.18
2022-12-23T17:57:49.163Z,12.02
2022-12-23T18:00:25.135Z,12.48
2022-12-23T18:02:55.836Z,13.82
2022-12-23T18:05:28.418Z,13.63
2022-12-23T18:07:57.214Z,14.30
2022-12-23T18:10:29.227Z,13.18
2022-12-23T18:13:01.681Z,11.95
2022-12-23T18:15:35.634Z,11.07
2022-12-23T18:18:02.659Z,12.18
2022-12-23T18:20:28.862Z,13.18
2022-12-23T18:22:55.308Z,14.10
2022-12-23T18:25:24.614Z,15.98
2022-12-23T18:27:52.024Z,18.80
2022-12-23T18:30:18.308Z,15.55
2022-12-23T18:32:45.149Z,17.02
2022-12-23T18:35:51.738Z,15.85
2022-12-23T18:38:18.565Z,13.77
2022-12-23T18:40:44.804Z,13.55
2022-12-23T18:43:19.701Z,13.07
2022-12-23T18:45:50.806Z,14.43
2022-12-23T18:48:18.885Z,14.02
2022-12-23T18:50:46.763Z,13.63
2022-12-23T18:53:23.484Z,14.55
2022-12-23T18:55:51.011Z,14.50
2022-12-23T18:58:18.089Z,13.55
2022-12-23T19:00:44.939Z,13.23
2022-12-23T19:03:28.913Z,14.48
2022-12-23T19:05:56.861Z,13.80
2022-12-23T19:08:27.238Z,13.95
2022-12-23T19:10:54.552Z,13.10
2022-12-23T19:13:20.681Z,14.32
2022-12-23T19:15:46.854Z,14.52
2022-12-23T19:18:15.372Z,13.10
2022-12-23T19:20:43.007Z,13.60
2022-12-23T19:23:09.883Z,14.15
2022-12-23T19:25:35.997Z,14.40
2022-12-23T19:28:02.121Z,14.00
2022-12-23T19:30:29.629Z,14.98
2022-12-23T19:32:55.782Z,13.50
2022-12-23T19:35:21.985Z,15.57
2022-12-23T19:37:48.174Z,13.52
2022-12-23T19:40:14.283Z,14.57
2022-12-23T19:42:40.740Z,13.98
2022-12-23T19:45:08.608Z,12.82
2022-12-23T19:47:35.139Z,15.38
2022-12-23T19:50:01.261Z,13.48
2022-12-23T19:52:27.527Z,13.18
2022-12-23T19:54:53.630Z,13.68
2022-12-23T19:57:20.149Z,13.30
2022-12-23T19:59:46.366Z,14.45
2022-12-23T20:02:16.736Z,13.98
2022-12-23T20:04:43.427Z,12.27
2022-12-23T20:07:09.787Z,12.48
2022-12-23T20:09:36.549Z,12.25
2022-12-23T20:12:02.839Z,14.13
2022-12-23T20:14:32.334Z,13.75
2022-12-23T20:17:00.360Z,13.75
2022-12-23T20:19:26.483Z,14.95
2022-12-23T20:21:52.644Z,15.13
2022-12-23T20:24:18.908Z,14.50
2022-12-23T20:26:45.080Z,13.43
2022-12-23T20:29:11.241Z,14.45
2022-12-23T20:31:39.105Z,12.70
2022-12-23T20:34:09.283Z,13.05
2022-12-23T20:36:36.606Z,13.82
2022-12-23T20:39:04.094Z,13.95
2022-12-23T20:41:31.874Z,12.07
2022-12-23T20:46:44.940Z,11.65
2022-12-23T20:49:11.142Z,12.45
2022-12-23T20:51:37.253Z,11.57
2022-12-23T20:54:03.386Z,11.18
2022-12-23T20:56:30.442Z,11.70
2022-12-23T20:59:02.614Z,10.98
2022-12-23T21:01:35.821Z,10.35
2022-12-23T21:04:04.848Z,11.95
2022-12-23T21:06:31.615Z,10.85
2022-12-23T21:08:59.947Z,11.25
2022-12-23T21:11:30.861Z,10.85
2022-12-23T21:14:01.211Z,10.00
2022-12-23T21:16:32.468Z,10.80
2022-12-23T21:18:59.551Z,9.32
2022-12-23T21:21:27.270Z,11.18
2022-12-23T21:23:55.747Z,9.10
2022-12-23T21:26:24.292Z,10.15
2022-12-23T21:28:52.539Z,9.90
2022-12-23T21:31:21.243Z,10.70
2022-12-23T21:33:49.077Z,10.93
2022-12-23T21:36:20.471Z,10.02
2022-12-23T21:38:48.170Z,9.27
2022-12-23T21:41:17.839Z,10.48
2022-12-23T21:43:44.369Z,10.23
2022-12-23T21:46:13.733Z,8.52
2022-12-23T21:48:40.607Z,9.80
2022-12-23T21:51:18.901Z,11.05
2022-12-23T21:53:46.700Z,10.07
2022-12-23T21:56:15.225Z,11.00
2022-12-23T21:58:42.333Z,9.80
2022-12-23T22:01:20.463Z,10.90
2022-12-23T22:03:48.703Z,11.00
2022-12-23T22:06:17.896Z,11.75
2022-12-23T22:08:44.414Z,12.50
2022-12-23T22:11:13.388Z,12.20
2022-12-23T22:13:40.489Z,13.43
2022-12-23T22:16:10.344Z,14.10
2022-12-23T22:18:37.505Z,13.50
2022-12-23T22:21:05.474Z,14.98
2022-12-23T22:23:31.625Z,13.38
2022-12-23T22:25:57.824Z,14.70
2022-12-23T22:28:24.012Z,14.32
2022-12-23T22:30:50.168Z,14.82
2022-12-23T22:33:16.451Z,14.90
2022-12-23T22:35:43.008Z,14.40
2022-12-23T22:38:09.280Z,13.73
2022-12-23T22:40:35.752Z,12.90
2022-12-23T22:43:01.884Z,13.85
2022-12-23T22:45:28.033Z,12.93
2022-12-23T22:47:54.194Z,12.75
2022-12-23T22:50:20.329Z,12.55
2022-12-23T22:52:46.456Z,11.38
2022-12-23T22:55:12.573Z,11.88
2022-12-23T22:57:38.715Z,12.30
2022-12-23T23:00:11.820Z,11.77
2022-12-23T23:02:38.796Z,12.38
2022-12-23T23:05:10.793Z,13.35
2022-12-23T23:07:38.718Z,14.68
2022-12-23T23:10:05.839Z,13.63
2022-12-23T23:12:31.955Z,14.13
2022-12-23T23:14:58.076Z,14.07
2022-12-23T23:17:26.173Z,14.13
2022-12-23T23:19:53.080Z,13.00
2022-12-23T23:22:21.159Z,13.02
2022-12-23T23:24:47.338Z,14.23
2022-12-23T23:27:14.148Z,14.13
2022-12-23T23:29:40.619Z,14.55
2022-12-23T23:32:07.539Z,14.50
2022-12-23T23:34:34.308Z,15.25
2022-12-23T23:37:01.021Z,13.90
2022-12-23T23:39:27.149Z,14.02
2022-12-23T23:41:53.279Z,13.07
2022-12-23T23:44:19.845Z,13.88
2022-12-23T23:46:47.169Z,13.57
2022-12-23T23:49:14.176Z,14.18
2022-12-23T23:51:41.840Z,14.40
2022-12-23T23:54:08.312Z,15.48
2022-12-23T23:56:38.665Z,14.13
2022-12-23T23:59:05.689Z,12.88
